Noble Ace — 2ELO7 — position and weather

sailwx.info

Track history (hours):
 
Tides and Currents Weather Stations Pressure Air Temp Water Temp Dewpoint Dewpoint Depression Visibility Wind Speed Wind Dir Waves Ship Positions

Noble Ace

Last reported at 2018-Jan-06 21:32 UTC. Time now 2018-Jan-23 23:55 UTC.
Position N 31°07' E 122°18'.
Warning: this ship's position is 17 days out of date.

Length 199 m; draft 8.6 m.

Type: Ship. MMSI: 235086166.

Date/timePositionNaut miles runAvg speedWind from/ knotsBaromVisibWave heightAir tempDewpointWater temp
2018-Jan-06 21:32N 31°07' E 122°18'114.7
2018-Jan-06 21:27N 31°07' E 122°16'814.8
2018-Jan-06 20:56N 31°12' E 122°09'714.7
2018-Jan-06 20:28N 31°14' E 122°02'714.8
2018-Jan-06 20:00N 31°16' E 121°54'713.7
2018-Jan-06 19:30N 31°18' E 121°46'5 0.4
2018-Jan-06 07:38N 31°20' E 121°41'310.2
2018-Jan-06 07:21N 31°19' E 121°44'410.4
2018-Jan-06 06:57N 31°17' E 121°49'4 8.9
2018-Jan-06 06:30N 31°16' E 121°53'4 8.9
2018-Jan-06 06:01N 31°15' E 121°58'610.7
2018-Jan-06 05:29N 31°14' E 122°05'710.0
2018-Jan-06 04:49N 31°10' E 122°11'3 9.4
2018-Jan-06 04:27N 31°08' E 122°15'4 9.3
2018-Jan-06 04:00N 31°06' E 122°19'11 6.1
2018-Jan-06 02:13N 31°10' E 122°31'2 5.4
2018-Jan-06 01:51N 31°10' E 122°33'  
2017-Dec-29 03:12N 41°18' E 140°13'316.5
2017-Dec-29 03:00N 41°20' E 140°17'816.5
2017-Dec-29 02:30N 41°25' E 140°25'917.5
2017-Dec-29 02:00N 41°30' E 140°34'816.8
2017-Dec-29 01:30N 41°35' E 140°44'815.3
2017-Dec-29 01:00N 41°37' E 140°53'714.5
2017-Dec-29 00:30N 41°37' E 141°03'815.5
2017-Dec-29 00:00N 41°39' E 141°13'917.3
2017-Dec-28 23:30N 41°40' E 141°25'816.3
2017-Dec-28 23:00N 41°40' E 141°36'816.9
2017-Dec-28 22:30N 41°41' E 141°47'  
Track history (hours):
 
Tides and Currents Weather Stations Pressure Air Temp Water Temp Dewpoint Dewpoint Depression Visibility Wind Speed Wind Dir Waves Ship Positions

Noble Ace

Last reported at 2018-Jan-06 21:32 UTC. Time now 2018-Jan-23 23:55 UTC.
Position N 31°07' E 122°18'.
Warning: this ship's position is 17 days out of date.

Length 199 m; draft 8.6 m.

Type: Ship. MMSI: 235086166.

Date/timePositionNaut miles runAvg speedWind from/ knotsBaromVisibWave heightAir tempDewpointWater temp
2018-Jan-06 21:32N 31°07' E 122°18'114.7
2018-Jan-06 21:27N 31°07' E 122°16'814.8
2018-Jan-06 20:56N 31°12' E 122°09'714.7
2018-Jan-06 20:28N 31°14' E 122°02'714.8
2018-Jan-06 20:00N 31°16' E 121°54'713.7
2018-Jan-06 19:30N 31°18' E 121°46'5 0.4
2018-Jan-06 07:38N 31°20' E 121°41'310.2
2018-Jan-06 07:21N 31°19' E 121°44'410.4
2018-Jan-06 06:57N 31°17' E 121°49'4 8.9
2018-Jan-06 06:30N 31°16' E 121°53'4 8.9
2018-Jan-06 06:01N 31°15' E 121°58'610.7
2018-Jan-06 05:29N 31°14' E 122°05'710.0
2018-Jan-06 04:49N 31°10' E 122°11'3 9.4
2018-Jan-06 04:27N 31°08' E 122°15'4 9.3
2018-Jan-06 04:00N 31°06' E 122°19'11 6.1
2018-Jan-06 02:13N 31°10' E 122°31'2 5.4
2018-Jan-06 01:51N 31°10' E 122°33'  
2017-Dec-29 03:12N 41°18' E 140°13'316.5
2017-Dec-29 03:00N 41°20' E 140°17'816.5
2017-Dec-29 02:30N 41°25' E 140°25'917.5
2017-Dec-29 02:00N 41°30' E 140°34'816.8
2017-Dec-29 01:30N 41°35' E 140°44'815.3
2017-Dec-29 01:00N 41°37' E 140°53'714.5
2017-Dec-29 00:30N 41°37' E 141°03'815.5
2017-Dec-29 00:00N 41°39' E 141°13'917.3
2017-Dec-28 23:30N 41°40' E 141°25'816.3
2017-Dec-28 23:00N 41°40' E 141°36'816.9
2017-Dec-28 22:30N 41°41' E 141°47'  

Dump ship's entire track history